CheckWX is a tool to help pilots better visualize weather data.  It is not intended as a substitute for an official pre-flight weather briefing.

21:16:16 UTC

KOXI METAR
Starke County Airport
Knox, Indiana, USA
Current

21 mins ago

KOXI 192055Z AUTO 00000KT 10SM CLR 28/11 A3006 RMK AO1
Observed
Sep-19 @ 20:55 UTC
Visibility
10 SM
Flight Rules
VFR
Cloud Levels
  • Clear skies
Temperature
28°C / 82°F
Dewpoint
11°C / 52°F
Humidity
35%
Altimeter
30.06" Hg
Pressure
1017.92 hPa
Previous

41 mins ago

KOXI 192035Z AUTO 00000KT 10SM CLR 28/11 A3007 RMK AO1
Observed
Sep-19 @ 20:35 UTC
Visibility
10 SM
Flight Rules
VFR
Cloud Levels
  • Clear skies
Temperature
28°C / 82°F
Dewpoint
11°C / 52°F
Humidity
35%
Altimeter
30.07" Hg
Pressure
1018.32 hPa
Previous

1 hour ago

KOXI 192015Z AUTO 00000KT 10SM CLR 28/10 A3007 RMK AO1
Observed
Sep-19 @ 20:15 UTC
Visibility
10 SM
Flight Rules
VFR
Cloud Levels
  • Clear skies
Temperature
28°C / 82°F
Dewpoint
10°C / 50°F
Humidity
32%
Altimeter
30.07" Hg
Pressure
1018.32 hPa